createdAt,value
2023-03-24T00:03:54.315Z,1.52
2023-03-24T00:08:01.652Z,1.35
2023-03-24T00:12:04.154Z,1.60
2023-03-24T00:16:06.621Z,1.35
2023-03-24T00:20:16.898Z,1.40
2023-03-24T00:24:18.676Z,1.58
2023-03-24T00:28:20.382Z,1.50
2023-03-24T00:32:22.747Z,1.60
2023-03-24T00:36:26.588Z,1.67
2023-03-24T00:40:28.288Z,1.70
2023-03-24T00:44:29.994Z,1.23
2023-03-24T00:48:32.608Z,1.37
2023-03-24T00:52:34.967Z,1.65
2023-03-24T00:56:40.390Z,1.62
2023-03-24T01:00:42.721Z,1.35
2023-03-24T01:04:47.193Z,1.50
2023-03-24T01:08:53.603Z,1.58
2023-03-24T01:12:57.028Z,1.87
2023-03-24T01:16:59.851Z,1.65
2023-03-24T01:21:01.603Z,1.77
2023-03-24T01:25:14.037Z,1.80
2023-03-24T01:29:15.803Z,1.90
2023-03-24T01:33:17.987Z,1.58
2023-03-24T01:37:19.727Z,1.48
2023-03-24T01:41:21.534Z,1.95
2023-03-24T01:45:38.569Z,2.17
2023-03-24T01:49:53.340Z,1.80
2023-03-24T01:54:10.340Z,2.30
2023-03-24T01:58:12.225Z,2.28
2023-03-24T02:02:15.959Z,2.05
2023-03-24T02:06:18.975Z,2.30
2023-03-24T02:10:22.665Z,2.58
2023-03-24T02:14:24.400Z,2.33
2023-03-24T02:18:29.430Z,2.20
2023-03-24T02:22:52.676Z,2.42
2023-03-24T02:27:23.746Z,2.60
2023-03-24T02:31:43.614Z,2.30
2023-03-24T02:36:13.226Z,2.35
2023-03-24T02:40:33.125Z,2.92
2023-03-24T02:45:12.212Z,2.42
2023-03-24T02:49:13.876Z,2.58
2023-03-24T02:53:26.153Z,2.92
2023-03-24T02:57:54.724Z,2.70
2023-03-24T03:02:05.195Z,2.30
2023-03-24T03:06:22.087Z,2.37
2023-03-24T03:10:29.320Z,2.35
2023-03-24T03:18:43.430Z,2.50
2023-03-24T03:23:00.702Z,2.47
2023-03-24T03:27:08.289Z,2.40
2023-03-24T03:31:16.112Z,2.35
2023-03-24T03:35:36.431Z,1.70
2023-03-24T03:39:43.725Z,2.10
2023-03-24T03:47:49.027Z,1.77
2023-03-24T03:51:51.796Z,1.30
2023-03-24T03:55:53.785Z,1.67
2023-03-24T03:59:56.485Z,1.60
2023-03-24T04:04:04.234Z,1.55
2023-03-24T04:08:14.599Z,1.60
2023-03-24T04:12:48.574Z,1.50
2023-03-24T04:17:11.632Z,1.45
2023-03-24T04:21:34.583Z,1.70
2023-03-24T04:25:44.943Z,1.77
2023-03-24T04:30:16.489Z,1.70
2023-03-24T04:34:37.161Z,1.60
2023-03-24T04:38:39.171Z,1.58
2023-03-24T04:42:48.486Z,1.70
2023-03-24T04:46:51.912Z,1.12
2023-03-24T04:50:57.408Z,1.73
2023-03-24T04:54:59.997Z,1.60
2023-03-24T04:59:02.096Z,1.75
2023-03-24T05:03:04.586Z,1.70
2023-03-24T05:07:06.336Z,1.90
2023-03-24T05:11:08.031Z,1.60
2023-03-24T05:15:10.515Z,1.50
2023-03-24T05:19:12.391Z,1.50
2023-03-24T05:23:14.452Z,1.15
2023-03-24T05:27:16.437Z,1.15
2023-03-24T05:31:18.484Z,0.93
2023-03-24T05:35:20.298Z,0.90
2023-03-24T05:39:22.173Z,0.82
2023-03-24T05:43:23.821Z,0.90
2023-03-24T05:47:25.492Z,0.70
2023-03-24T05:51:27.316Z,0.88
2023-03-24T05:55:30.196Z,0.70
2023-03-24T05:59:31.919Z,0.98
2023-03-24T06:03:34.713Z,0.90
2023-03-24T06:07:42.460Z,0.90
2023-03-24T06:11:44.873Z,1.02
2023-03-24T06:15:46.966Z,1.00
2023-03-24T06:19:49.702Z,1.20
2023-03-24T06:23:51.670Z,1.58
2023-03-24T06:27:53.414Z,1.02
2023-03-24T06:31:55.338Z,0.90
2023-03-24T06:35:57.079Z,1.20
2023-03-24T06:39:59.196Z,1.17
2023-03-24T06:44:01.746Z,1.40
2023-03-24T06:48:03.602Z,1.20
2023-03-24T06:52:05.484Z,1.62
2023-03-24T06:56:07.906Z,1.25
2023-03-24T07:00:10.207Z,1.25
2023-03-24T07:04:11.871Z,1.27
2023-03-24T07:12:18.155Z,1.17
2023-03-24T07:16:19.931Z,1.48
2023-03-24T07:20:21.873Z,1.20
2023-03-24T07:24:23.793Z,1.85
2023-03-24T07:28:25.967Z,1.33
2023-03-24T07:32:30.411Z,1.52
2023-03-24T07:36:32.322Z,1.20
2023-03-24T07:40:35.501Z,1.30
2023-03-24T07:44:37.142Z,1.62
2023-03-24T07:48:38.830Z,1.33
2023-03-24T07:52:42.299Z,1.60
2023-03-24T07:56:44.157Z,1.00
2023-03-24T08:00:45.958Z,1.50
2023-03-24T08:04:53.678Z,1.52
2023-03-24T08:08:55.913Z,1.70
2023-03-24T08:12:59.009Z,1.65
2023-03-24T08:17:00.755Z,1.55
2023-03-24T08:21:02.501Z,1.58
2023-03-24T08:25:04.417Z,1.90
2023-03-24T08:29:06.134Z,2.58
2023-03-24T08:33:07.855Z,2.30
2023-03-24T08:37:09.862Z,2.25
2023-03-24T08:41:11.718Z,2.45
2023-03-24T08:45:13.730Z,2.70
2023-03-24T08:49:15.630Z,2.62
2023-03-24T08:53:17.310Z,2.42
2023-03-24T08:57:19.181Z,2.22
2023-03-24T09:01:22.734Z,1.87
2023-03-24T09:05:40.822Z,1.80
2023-03-24T09:09:45.397Z,2.17
2023-03-24T09:13:47.943Z,2.10
2023-03-24T09:17:49.733Z,1.90
2023-03-24T09:21:51.549Z,1.83
2023-03-24T09:25:53.783Z,1.55
2023-03-24T09:29:55.585Z,1.75
2023-03-24T09:33:57.395Z,1.85
2023-03-24T09:37:59.152Z,2.08
2023-03-24T09:42:00.865Z,1.98
2023-03-24T09:46:05.989Z,2.05
2023-03-24T09:50:17.886Z,2.30
2023-03-24T09:54:31.310Z,1.90
2023-03-24T09:58:33.530Z,1.98
2023-03-24T10:02:35.721Z,2.17
2023-03-24T10:06:41.831Z,1.58
2023-03-24T10:10:55.812Z,2.65
2023-03-24T10:15:06.757Z,1.70
2023-03-24T10:19:40.967Z,2.05
2023-03-24T10:23:48.800Z,1.65
2023-03-24T10:27:57.238Z,1.73
2023-03-24T10:32:00.687Z,2.05
2023-03-24T10:36:09.796Z,1.65
2023-03-24T10:40:18.100Z,1.73
2023-03-24T10:44:21.335Z,2.10
2023-03-24T10:48:45.163Z,2.33
2023-03-24T10:52:48.797Z,1.70
2023-03-24T10:56:57.947Z,2.55
2023-03-24T11:01:00.569Z,1.80
2023-03-24T11:05:18.936Z,1.73
2023-03-24T11:09:22.384Z,2.05
2023-03-24T11:13:25.928Z,1.52
2023-03-24T11:17:27.807Z,1.50
2023-03-24T11:21:31.573Z,1.55
2023-03-24T11:25:37.040Z,1.33
2023-03-24T11:29:39.870Z,2.20
2023-03-24T11:33:51.579Z,1.48
2023-03-24T11:37:53.315Z,1.60
2023-03-24T11:42:17.365Z,1.20
2023-03-24T11:46:21.204Z,1.77
2023-03-24T11:50:38.821Z,1.48
2023-03-24T11:58:58.938Z,1.60
2023-03-24T12:03:27.660Z,1.17
2023-03-24T12:07:39.449Z,1.90
2023-03-24T12:12:00.498Z,1.52
2023-03-24T12:16:31.645Z,1.20
2023-03-24T12:20:58.500Z,1.60
2023-03-24T12:25:31.227Z,1.27
2023-03-24T12:29:52.920Z,1.52
2023-03-24T12:34:16.804Z,1.45
2023-03-24T12:38:56.755Z,1.50
2023-03-24T12:43:26.158Z,1.27
2023-03-24T12:47:56.088Z,1.20
2023-03-24T12:52:18.927Z,1.23
2023-03-24T12:56:26.582Z,1.40
2023-03-24T13:00:36.171Z,1.12
2023-03-24T13:04:42.179Z,1.20
2023-03-24T13:08:52.449Z,1.55
2023-03-24T13:12:57.134Z,1.40
2023-03-24T13:17:05.994Z,1.33
2023-03-24T13:21:17.561Z,1.33
2023-03-24T13:25:46.221Z,1.37
2023-03-24T13:30:13.367Z,1.17
2023-03-24T13:34:31.102Z,1.20
2023-03-24T13:38:38.740Z,1.23
2023-03-24T13:42:48.601Z,1.10
2023-03-24T13:47:19.916Z,1.37
2023-03-24T13:51:38.008Z,1.17
2023-03-24T13:55:44.377Z,1.00
2023-03-24T14:00:12.034Z,0.90
2023-03-24T14:04:25.993Z,0.90
2023-03-24T14:08:51.844Z,1.00
2023-03-24T14:12:53.603Z,0.82
2023-03-24T14:17:14.494Z,0.80
2023-03-24T14:21:27.908Z,0.50
2023-03-24T14:25:32.348Z,1.00
2023-03-24T14:29:52.353Z,1.05
2023-03-24T14:33:53.969Z,0.75
2023-03-24T14:38:04.304Z,1.23
2023-03-24T14:42:33.979Z,1.10
2023-03-24T14:46:39.425Z,1.12
2023-03-24T14:50:41.385Z,1.08
2023-03-24T14:54:53.350Z,0.88
2023-03-24T14:58:57.717Z,0.70
2023-03-24T15:03:10.627Z,1.50
2023-03-24T15:07:14.130Z,1.10
2023-03-24T15:11:20.095Z,0.90
2023-03-24T15:15:23.736Z,0.80
2023-03-24T15:19:28.905Z,0.68
2023-03-24T15:23:31.143Z,0.88
2023-03-24T15:27:34.419Z,0.82
2023-03-24T15:31:37.962Z,0.70
2023-03-24T15:35:42.752Z,0.82
2023-03-24T15:40:12.538Z,0.85
2023-03-24T15:44:20.668Z,0.82
2023-03-24T15:48:25.482Z,1.10
2023-03-24T15:52:31.737Z,1.25
2023-03-24T15:56:34.338Z,0.62
2023-03-24T16:00:41.046Z,0.43
2023-03-24T16:04:42.975Z,0.35
2023-03-24T16:08:46.250Z,0.40
2023-03-24T16:12:47.888Z,0.40
2023-03-24T16:16:54.183Z,0.50
2023-03-24T16:20:56.043Z,1.23
2023-03-24T16:24:58.352Z,0.60
2023-03-24T16:29:17.251Z,0.60
2023-03-24T16:33:20.504Z,0.50
2023-03-24T16:37:22.109Z,0.57
2023-03-24T16:41:24.157Z,0.50
2023-03-24T16:45:25.899Z,0.57
2023-03-24T16:49:27.875Z,0.40
2023-03-24T16:53:29.599Z,0.50
2023-03-24T16:57:31.594Z,0.55
2023-03-24T17:01:38.126Z,0.60
2023-03-24T17:05:51.251Z,0.30
2023-03-24T17:09:52.946Z,0.65
2023-03-24T17:13:57.027Z,0.40
2023-03-24T17:17:59.584Z,0.40
2023-03-24T17:22:04.555Z,0.50
2023-03-24T17:26:06.491Z,0.40
2023-03-24T17:30:11.076Z,0.98
2023-03-24T17:38:18.912Z,0.85
2023-03-24T17:42:20.635Z,0.70
2023-03-24T17:46:22.410Z,0.37
2023-03-24T17:50:25.335Z,0.70
2023-03-24T17:54:27.963Z,0.80
2023-03-24T17:58:30.827Z,0.82
2023-03-24T18:02:32.998Z,0.77
2023-03-24T18:06:34.836Z,0.85
2023-03-24T18:10:37.005Z,0.93
2023-03-24T18:14:38.654Z,1.10
2023-03-24T18:18:41.207Z,1.10
2023-03-24T18:22:43.150Z,1.15
2023-03-24T18:26:44.832Z,0.80
2023-03-24T18:30:46.921Z,1.10
2023-03-24T18:34:48.669Z,1.10
2023-03-24T18:38:50.674Z,0.88
2023-03-24T18:42:52.359Z,1.10
2023-03-24T18:46:55.313Z,1.17
2023-03-24T18:50:57.012Z,1.00
2023-03-24T18:55:00.748Z,1.02
2023-03-24T18:59:02.438Z,1.02
2023-03-24T19:03:04.531Z,0.80
2023-03-24T19:07:08.032Z,0.85
2023-03-24T19:11:10.890Z,1.23
2023-03-24T19:15:13.368Z,1.37
2023-03-24T19:19:18.246Z,1.52
2023-03-24T19:23:20.475Z,1.48
2023-03-24T19:27:23.253Z,1.58
2023-03-24T19:31:24.914Z,0.90
2023-03-24T19:35:26.971Z,0.90
2023-03-24T19:39:28.703Z,0.93
2023-03-24T19:43:30.583Z,1.00
2023-03-24T19:47:33.930Z,0.95
2023-03-24T19:51:35.700Z,0.88
2023-03-24T19:55:37.345Z,0.73
2023-03-24T19:59:39.004Z,1.02
2023-03-24T20:03:40.717Z,1.10
2023-03-24T20:07:42.452Z,0.98
2023-03-24T20:11:44.133Z,1.17
2023-03-24T20:15:46.468Z,0.75
2023-03-24T20:19:48.297Z,0.80
2023-03-24T20:23:51.675Z,0.90
2023-03-24T20:27:53.345Z,1.15
2023-03-24T20:31:55.082Z,0.90
2023-03-24T20:35:57.722Z,0.80
2023-03-24T20:39:59.567Z,1.40
2023-03-24T20:44:01.355Z,1.02
2023-03-24T20:48:03.379Z,1.15
2023-03-24T20:52:05.232Z,1.25
2023-03-24T20:56:09.812Z,1.10
2023-03-24T21:00:15.164Z,1.27
2023-03-24T21:04:18.726Z,0.90
2023-03-24T21:08:20.416Z,1.00
2023-03-24T21:12:22.273Z,1.05
2023-03-24T21:16:26.496Z,1.35
2023-03-24T21:20:28.279Z,0.77
2023-03-24T21:24:30.076Z,1.30
2023-03-24T21:28:32.235Z,1.00
2023-03-24T21:32:36.799Z,0.60
2023-03-24T21:36:38.676Z,0.70
2023-03-24T21:40:40.454Z,0.70
2023-03-24T21:44:42.660Z,0.70
2023-03-24T21:48:50.023Z,0.50
2023-03-24T21:52:53.813Z,0.68
2023-03-24T21:56:55.530Z,0.60
2023-03-24T22:00:58.451Z,0.93
2023-03-24T22:05:01.432Z,0.70
2023-03-24T22:09:06.710Z,0.50
2023-03-24T22:13:09.143Z,0.60
2023-03-24T22:17:10.913Z,0.60
2023-03-24T22:21:13.020Z,0.40
2023-03-24T22:25:17.859Z,0.57
2023-03-24T22:29:19.559Z,0.50
2023-03-24T22:33:21.445Z,0.57
2023-03-24T22:37:23.254Z,0.70
2023-03-24T22:41:25.174Z,0.68
2023-03-24T22:45:26.936Z,0.70
2023-03-24T22:49:29.553Z,0.85
2023-03-24T22:53:31.217Z,0.55
2023-03-24T22:57:32.880Z,0.60
2023-03-24T23:01:34.558Z,0.55
2023-03-24T23:05:40.795Z,0.73
2023-03-24T23:09:42.931Z,0.60
2023-03-24T23:13:46.655Z,0.50
2023-03-24T23:17:48.443Z,0.43
2023-03-24T23:21:50.247Z,0.60
2023-03-24T23:25:51.947Z,0.45
2023-03-24T23:29:53.720Z,0.68
2023-03-24T23:33:57.362Z,0.50
2023-03-24T23:37:59.350Z,0.50
2023-03-24T23:42:00.993Z,0.80
2023-03-24T23:46:03.143Z,0.60
2023-03-24T23:50:06.261Z,0.57
2023-03-24T23:54:08.067Z,0.50
2023-03-24T23:58:09.711Z,0.60
